Time;durP1;ratioP1;P1;durP2;ratioP2;P2;SDS_P1;SDS_P2;PMS_P1;PMS_P2;Temp;Humidity;BMP_temperature;BMP_pressure;BME280_temperature;BME280_humidity;BME280_pressure;Samples;Min_cycle;Max_cycle;Signal;HPM_P1;HPM_P2
2021/04/04 00:01:13;;;;;;;31.12;19.75;;;;;;;1.71;87.82;99883.09;1809320;79;21339;-75
2021/04/04 00:04:18;;;;;;;25.35;17.27;;;;;;;1.73;87.66;99883.80;1809297;79;21255;-75
2021/04/04 00:07:23;;;;;;;20.85;15.38;;;;;;;1.75;87.56;99880.50;1808213;79;21125;-76
2021/04/04 00:10:28;;;;;;;22.17;15.80;;;;;;;1.81;87.57;99878.27;1803345;79;21343;-76
2021/04/04 00:13:33;;;;;;;22.93;16.20;;;;;;;1.83;87.41;99874.44;1780235;80;21265;-75
2021/04/04 00:16:40;;;;;;;23.02;15.80;;;;;;;1.87;87.33;99872.34;1780253;80;21197;-75
2021/04/04 00:19:45;;;;;;;24.12;16.70;;;;;;;1.92;87.13;99868.75;1780307;80;21154;-75
2021/04/04 00:22:51;;;;;;;27.42;16.82;;;;;;;1.95;86.96;99869.84;1780324;80;21285;-75
2021/04/04 00:25:56;;;;;;;31.42;20.15;;;;;;;1.96;86.79;99865.66;1757211;80;21259;-75
2021/04/04 00:29:01;;;;;;;30.50;21.33;;;;;;;1.99;86.68;99868.09;1780325;80;21665;-75
2021/04/04 00:32:07;;;;;;;24.05;18.05;;;;;;;2.01;86.54;99863.41;1780282;80;21255;-75
2021/04/04 00:35:18;;;;;;;28.45;19.85;;;;;;;2.05;86.26;99870.75;1780328;80;21341;-75
2021/04/04 00:38:24;;;;;;;30.32;19.60;;;;;;;2.05;85.99;99866.70;1780349;80;21731;-75
2021/04/04 00:41:30;;;;;;;31.87;21.12;;;;;;;2.05;85.67;99865.36;1780282;79;21833;-75
2021/04/04 00:44:37;;;;;;;32.30;21.10;;;;;;;2.03;85.44;99864.66;1780342;80;21301;-76
2021/04/04 00:47:42;;;;;;;28.45;20.15;;;;;;;2.01;85.23;99862.56;1780370;80;21759;-75
2021/04/04 00:50:48;;;;;;;32.20;19.57;;;;;;;2.01;85.32;99866.61;1780204;80;21310;-75
2021/04/04 00:53:54;;;;;;;31.75;19.62;;;;;;;2.03;85.82;99865.50;1780273;80;21190;-76
2021/04/04 00:56:59;;;;;;;31.02;19.50;;;;;;;2.11;86.26;99874.26;1814041;79;21322;-75
2021/04/04 01:00:04;;;;;;;28.00;19.60;;;;;;;2.16;86.40;99858.52;1815438;79;21247;-76
2021/04/04 01:03:10;;;;;;;27.42;19.07;;;;;;;2.21;86.50;99854.96;1815359;79;21287;-75
2021/04/04 01:06:16;;;;;;;21.42;16.73;;;;;;;2.26;86.64;99863.51;1815266;79;21283;-76
2021/04/04 01:09:22;;;;;;;26.87;18.00;;;;;;;2.29;86.77;99853.77;1798295;79;21295;-76
2021/04/04 01:12:44;;;;;;;30.52;19.23;;;;;;;2.34;86.73;99850.67;1774847;81;21839;-76
2021/04/04 01:16:12;;;;;;;26.27;18.65;;;;;;;2.39;86.53;99843.52;1774807;81;21204;-76
2021/04/04 01:19:23;;;;;;;31.93;20.90;;;;;;;2.43;86.37;99843.61;1774856;81;21260;-75
2021/04/04 01:23:09;;;;;;;27.85;19.20;;;;;;;2.47;86.31;99838.30;1774580;81;21858;-75
2021/04/04 01:26:43;;;;;;;32.15;19.07;;;;;;;2.55;86.31;99834.44;1761188;81;21307;-75
2021/04/04 01:29:49;;;;;;;34.73;22.07;;;;;;;2.62;86.27;99827.98;1753907;81;21164;-76
2021/04/04 01:32:55;;;;;;;33.83;21.42;;;;;;;2.69;86.34;99830.50;1754034;82;21260;-75
2021/04/04 01:36:04;;;;;;;39.42;23.18;;;;;;;2.73;86.38;99832.79;1754015;82;21137;-76
2021/04/04 01:39:15;;;;;;;38.60;24.32;;;;;;;2.77;86.37;99828.80;1754284;82;21259;-76
2021/04/04 01:42:20;;;;;;;37.85;22.93;;;;;;;2.83;86.42;99827.91;1754021;82;21319;-76
2021/04/04 01:45:27;;;;;;;32.80;21.75;;;;;;;2.87;86.51;99832.02;1754065;82;21272;-76
2021/04/04 01:48:34;;;;;;;39.15;21.50;;;;;;;2.88;86.66;99851.31;1754010;82;21255;-75
2021/04/04 01:51:39;;;;;;;38.17;22.85;;;;;;;2.83;86.74;99846.82;1753992;82;21719;-76
2021/04/04 01:54:47;;;;;;;41.45;26.35;;;;;;;2.78;87.06;99849.94;1754829;81;21306;-76
2021/04/04 01:57:54;;;;;;;40.98;25.75;;;;;;;2.76;87.50;99855.45;1771517;81;21283;-75
2021/04/04 02:00:59;;;;;;;38.92;23.70;;;;;;;2.78;87.79;99853.48;1771512;81;21269;-75
2021/04/04 02:04:10;;;;;;;39.10;24.47;;;;;;;2.82;87.81;99851.34;1771561;81;21820;-75
2021/04/04 02:07:15;;;;;;;42.03;24.02;;;;;;;2.83;87.57;99857.13;1771519;81;21772;-75
2021/04/04 02:10:25;;;;;;;34.30;21.27;;;;;;;2.83;87.26;99858.48;1783491;79;21207;-75
2021/04/04 02:13:32;;;;;;;42.90;24.25;;;;;;;2.84;87.05;99855.27;1803709;79;21253;-75
2021/04/04 02:16:36;;;;;;;42.85;24.85;;;;;;;2.85;86.90;99864.58;1803575;79;21221;-75
2021/04/04 02:19:42;;;;;;;40.03;25.77;;;;;;;2.91;86.93;99865.88;1803738;79;21819;-75
2021/04/04 02:22:46;;;;;;;37.50;23.87;;;;;;;2.93;86.90;99859.85;1803559;79;21326;-75
2021/04/04 02:25:52;;;;;;;40.85;25.57;;;;;;;2.93;86.91;99855.30;1803687;79;21268;-76
2021/04/04 02:29:00;;;;;;;43.40;25.77;;;;;;;2.94;87.07;99857.50;1803678;79;21315;-76
2021/04/04 02:32:09;;;;;;;40.08;24.87;;;;;;;2.91;87.29;99851.01;1803699;79;21141;-75
2021/04/04 02:35:15;;;;;;;35.33;21.87;;;;;;;2.92;87.62;99859.50;1803720;79;21256;-75
2021/04/04 02:38:28;;;;;;;40.33;21.82;;;;;;;2.92;87.97;99859.50;1803611;79;21307;-76
2021/04/04 02:41:34;;;;;;;36.68;22.35;;;;;;;2.90;88.19;99865.52;1795418;79;21249;-76
2021/04/04 02:44:40;;;;;;;39.73;23.75;;;;;;;2.87;88.45;99863.08;1793295;80;21283;-75
2021/04/04 02:47:59;;;;;;;38.70;24.57;;;;;;;2.83;88.77;99871.98;1793315;80;21244;-76
2021/04/04 02:51:07;;;;;;;36.15;23.77;;;;;;;2.86;89.18;99870.83;1793587;80;21192;-75
2021/04/04 02:54:15;;;;;;;43.40;24.90;;;;;;;2.95;89.61;99876.27;1793329;80;21292;-75
2021/04/04 02:57:21;;;;;;;49.23;27.37;;;;;;;3.02;89.77;99881.48;1793337;80;21872;-75
2021/04/04 03:00:27;;;;;;;35.78;22.55;;;;;;;3.11;89.82;99877.10;1793334;80;21121;-75
2021/04/04 03:03:32;;;;;;;40.38;24.75;;;;;;;3.16;89.71;99889.70;1793281;80;21204;-75
2021/04/04 03:06:37;;;;;;;38.88;23.42;;;;;;;3.14;89.54;99889.47;1793314;80;21780;-75
2021/04/04 03:09:42;;;;;;;35.52;22.55;;;;;;;3.11;89.63;99899.22;1792927;79;21265;-76
2021/04/04 03:12:48;;;;;;;36.23;20.35;;;;;;;3.12;90.05;99907.18;1768377;81;21754;-75
2021/04/04 03:15:55;;;;;;;34.08;20.23;;;;;;;3.21;90.55;99905.00;1770140;81;21753;-76
2021/04/04 03:19:00;;;;;;;30.85;18.92;;;;;;;3.31;90.88;99916.68;1770159;81;21841;-75
2021/04/04 03:22:06;;;;;;;31.48;20.43;;;;;;;3.38;90.91;99916.11;1770124;81;21257;-76
2021/04/04 03:25:14;;;;;;;27.05;17.70;;;;;;;3.43;90.87;99923.30;1770076;80;21281;-76
2021/04/04 03:28:24;;;;;;;29.40;19.90;;;;;;;3.52;90.86;99927.88;1770283;81;21269;-76
2021/04/04 03:31:30;;;;;;;;;;;;;;;3.59;90.73;99927.68;1772786;81;21338;-76
2021/04/04 03:34:35;;;;;;;28.47;19.02;;;;;;;3.67;90.52;99926.95;1770130;81;20251;-76
2021/04/04 03:37:42;;;;;;;28.60;17.42;;;;;;;3.72;90.46;99929.62;1770101;81;21273;-76
2021/04/04 03:40:48;;;;;;;30.05;16.20;;;;;;;3.82;90.27;99935.03;1769957;81;21798;-75
2021/04/04 03:43:56;;;;;;;26.68;17.57;;;;;;;3.85;89.87;99932.02;1768513;81;21186;-75
2021/04/04 03:47:02;;;;;;;27.25;17.90;;;;;;;3.92;89.72;99930.97;1770086;81;21269;-76
2021/04/04 03:50:07;;;;;;;25.72;15.98;;;;;;;4.00;89.54;99926.55;1770156;81;21207;-75
2021/04/04 03:53:13;;;;;;;27.17;18.00;;;;;;;4.10;89.28;99926.55;1770095;81;21265;-75
2021/04/04 03:56:20;;;;;;;30.72;17.85;;;;;;;4.14;88.85;99930.67;1770228;80;21139;-75
2021/04/04 03:59:28;;;;;;;28.40;16.65;;;;;;;4.15;88.62;99929.67;1770110;81;21191;-76
2021/04/04 04:02:33;;;;;;;20.15;13.95;;;;;;;4.14;88.46;99925.73;1770102;81;21869;-75
2021/04/04 04:05:39;;;;;;;22.60;15.25;;;;;;;4.15;88.27;99933.73;1770064;81;21306;-75
2021/04/04 04:08:45;;;;;;;20.75;14.33;;;;;;;4.15;88.07;99931.52;1768690;81;21158;-76
2021/04/04 04:11:53;;;;;;;22.60;13.88;;;;;;;4.17;87.91;99938.48;1770413;80;21806;-76
2021/04/04 04:14:59;;;;;;;21.62;14.28;;;;;;;4.17;87.57;99936.28;1771921;81;21337;-75
2021/04/04 04:18:05;;;;;;;26.07;17.00;;;;;;;4.13;87.30;99937.56;1772047;81;21276;-76
2021/04/04 04:21:12;;;;;;;20.17;14.33;;;;;;;4.10;87.29;99939.58;1772034;81;21251;-76
2021/04/04 04:24:22;;;;;;;23.42;16.57;;;;;;;4.12;87.42;99938.56;1736283;81;21829;-76
2021/04/04 04:27:25;;;;;;;;;;;;;;;4.10;87.46;99946.84;1774511;81;21750;-75
2021/04/04 04:30:31;;;;;;;26.80;15.98;;;;;;;4.13;87.66;99947.89;1772049;81;20262;-76
2021/04/04 04:33:36;;;;;;;25.55;15.75;;;;;;;4.14;87.85;99947.38;1772008;81;21247;-76
2021/04/04 04:36:41;;;;;;;25.75;15.65;;;;;;;4.16;88.08;99954.38;1771908;81;21684;-76
2021/04/04 04:39:47;;;;;;;23.85;13.75;;;;;;;4.21;88.28;99957.51;1773700;79;21286;-75
2021/04/04 04:42:55;;;;;;;22.02;13.68;;;;;;;4.26;88.35;99955.22;1803626;79;21244;-76
2021/04/04 04:46:01;;;;;;;21.57;14.33;;;;;;;4.28;88.41;99951.88;1803505;79;21229;-76
2021/04/04 04:49:09;;;;;;;20.45;13.62;;;;;;;4.30;88.56;99953.94;1803559;79;21268;-75
2021/04/04 04:52:13;;;;;;;22.85;14.70;;;;;;;4.31;88.65;99947.52;1803591;79;21930;-76
2021/04/04 04:55:19;;;;;;;20.88;13.05;;;;;;;4.30;88.72;99952.58;1794877;79;21291;-76
2021/04/04 04:58:25;;;;;;;19.55;12.50;;;;;;;4.28;88.88;99955.06;1772039;81;21271;-76
2021/04/04 05:01:33;;;;;;;17.90;12.75;;;;;;;4.27;89.14;99966.39;1772010;81;21315;-76
2021/04/04 05:04:40;;;;;;;20.55;12.73;;;;;;;4.29;89.38;99960.86;1772093;81;21306;-76
2021/04/04 05:07:48;;;;;;;20.02;13.55;;;;;;;4.31;89.58;99969.17;1772104;81;21306;-76
2021/04/04 05:10:54;;;;;;;19.45;13.43;;;;;;;4.37;89.76;99973.15;1772013;81;21275;-76
2021/04/04 05:14:01;;;;;;;23.85;14.18;;;;;;;4.45;89.85;99972.44;1771411;80;21303;-76
2021/04/04 05:17:07;;;;;;;17.23;11.45;;;;;;;4.50;89.80;99972.85;1772084;81;21279;-76
2021/04/04 05:20:14;;;;;;;20.25;11.55;;;;;;;4.55;89.82;99970.05;1772237;81;21255;-76
2021/04/04 05:23:27;;;;;;;15.55;10.28;;;;;;;4.60;89.74;99975.03;1772219;81;21261;-76
2021/04/04 05:26:34;;;;;;;12.95;9.13;;;;;;;4.66;89.77;99980.36;1771809;81;21291;-76
2021/04/04 05:29:40;;;;;;;13.58;8.50;;;;;;;4.69;89.76;99989.56;1772014;81;21863;-76
2021/04/04 05:32:57;;;;;;;16.02;8.73;;;;;;;4.74;89.72;99985.41;1772142;81;21268;-76
2021/04/04 05:36:03;;;;;;;11.12;7.67;;;;;;;4.77;89.66;99990.55;1772107;81;21797;-76
2021/04/04 05:39:07;;;;;;;13.72;9.20;;;;;;;4.81;89.67;99984.34;1755158;81;21810;-76
2021/04/04 05:42:16;;;;;;;12.63;9.20;;;;;;;4.84;89.63;99985.37;1772098;81;21201;-76
2021/04/04 05:45:21;;;;;;;17.57;10.00;;;;;;;4.84;89.68;99984.02;1772101;81;21153;-76
2021/04/04 05:48:47;;;;;;;14.10;9.65;;;;;;;4.84;89.78;99984.02;1772133;81;21787;-76
2021/04/04 05:52:14;;;;;;;14.35;8.85;;;;;;;4.86;89.91;99982.89;1772122;81;21302;-76
2021/04/04 05:55:57;;;;;;;16.40;8.33;;;;;;;4.84;89.70;99982.16;1770503;80;21719;-76
2021/04/04 05:59:18;;;;;;;10.85;8.03;;;;;;;4.78;89.47;99977.84;1772075;81;21140;-76
2021/04/04 06:02:59;;;;;;;11.30;6.70;;;;;;;4.68;89.13;99981.94;1772196;81;21294;-76
2021/04/04 06:06:52;;;;;;;10.03;6.67;;;;;;;4.58;88.65;99987.88;1685710;85;21330;-76
2021/04/04 06:10:12;;;;;;;9.85;6.00;;;;;;;4.52;88.28;99987.97;1680606;85;21177;-76
2021/04/04 06:13:39;;;;;;;10.18;6.55;;;;;;;4.47;87.78;99996.16;1649881;87;21294;-76
2021/04/04 06:17:09;;;;;;;12.35;7.00;;;;;;;4.41;87.42;100003.01;1724660;82;21204;-76
2021/04/04 06:20:50;;;;;;;10.90;6.10;;;;;;;4.33;87.49;99998.34;1726221;83;21279;-76
2021/04/04 06:24:00;;;;;;;10.85;5.87;;;;;;;4.28;87.72;100012.80;1726170;83;21275;-76
2021/04/04 06:27:36;;;;;;;;;;;;;;;4.24;87.93;100016.79;1728587;83;21720;-76
2021/04/04 06:30:52;;;;;;;7.15;5.67;;;;;;;4.21;87.93;100027.05;1726162;83;20575;-76
2021/04/04 06:34:12;;;;;;;7.60;5.00;;;;;;;4.18;87.97;100034.94;1710884;83;21208;-76
2021/04/04 06:37:50;;;;;;;8.23;5.87;;;;;;;4.21;88.04;100037.37;1724931;83;22243;-76
2021/04/04 06:41:17;;;;;;;10.78;6.17;;;;;;;4.25;88.08;100030.67;1746612;81;21309;-76
2021/04/04 06:44:29;;;;;;;10.10;6.70;;;;;;;4.34;88.12;100024.41;1765093;81;21794;-76
2021/04/04 06:48:06;;;;;;;11.33;6.67;;;;;;;4.39;88.03;100019.06;1765046;81;21297;-76
2021/04/04 06:51:47;;;;;;;10.80;6.87;;;;;;;4.34;87.67;100025.77;1764933;81;21155;-76
2021/04/04 06:55:21;;;;;;;;;;;;;;;4.27;87.33;100027.31;1767617;80;21195;-76
2021/04/04 06:58:59;;;;;;;9.65;6.25;;;;;;;4.28;87.24;100033.11;1765062;81;20266;-76
2021/04/04 07:02:14;;;;;;;11.00;7.20;;;;;;;4.29;87.13;100028.05;1765035;81;21341;-76
2021/04/04 07:05:24;;;;;;;11.90;7.00;;;;;;;4.34;87.13;100019.49;1764963;81;21711;-76
2021/04/04 07:09:10;;;;;;;12.63;6.42;;;;;;;4.40;87.07;100011.29;1764966;81;21344;-75
2021/04/04 07:12:35;;;;;;;12.37;7.92;;;;;;;4.43;86.95;100006.95;1764880;81;21297;-75
2021/04/04 07:16:07;;;;;;;13.15;8.43;;;;;;;4.52;87.00;100015.06;1776562;80;21840;-76
2021/04/04 07:19:42;;;;;;;21.02;12.07;;;;;;;4.60;87.00;100017.02;1796322;80;21824;-75
2021/04/04 07:23:18;;;;;;;35.52;18.15;;;;;;;4.57;86.44;100006.50;1796328;80;21815;-75
2021/04/04 07:27:16;;;;;;;46.98;24.07;;;;;;;4.63;86.52;100005.06;1796233;80;21256;-76
2021/04/04 07:30:45;;;;;;;49.08;26.27;;;;;;;4.68;86.41;100006.32;1796287;80;21253;-76
2021/04/04 07:34:16;;;;;;;64.92;31.48;;;;;;;4.68;86.11;100002.26;1796331;80;21272;-76
2021/04/04 07:37:43;;;;;;;81.47;34.98;;;;;;;4.69;86.08;100008.02;1796339;80;21122;-76
2021/04/04 07:41:15;;;;;;;64.95;29.42;;;;;;;4.67;85.97;100014.10;1796370;80;21696;-76
2021/04/04 07:44:45;;;;;;;57.43;28.95;;;;;;;4.68;86.06;100009.03;1796499;80;21252;-76
2021/04/04 07:48:43;;;;;;;54.75;25.17;;;;;;;4.61;86.25;100022.31;1796330;80;21174;-76
2021/04/04 07:51:52;;;;;;;54.80;24.72;;;;;;;4.58;86.44;100016.33;1756305;80;21780;-76
2021/04/04 07:55:17;;;;;;;67.70;30.80;;;;;;;4.52;86.69;100011.50;1774964;80;21193;-76
2021/04/04 07:58:39;;;;;;;68.12;30.20;;;;;;;4.47;86.86;100000.22;1796402;80;21166;-76
2021/04/04 08:01:58;;;;;;;86.60;37.93;;;;;;;4.42;87.01;100009.28;1796476;80;21138;-76
2021/04/04 08:05:16;;;;;;;71.05;30.57;;;;;;;4.49;87.24;100000.94;1795094;80;21318;-76
2021/04/04 08:08:29;;;;;;;40.73;20.10;;;;;;;4.57;87.02;99999.73;1796314;80;21292;-76
2021/04/04 08:11:59;;;;;;;33.23;18.30;;;;;;;4.57;86.70;99986.19;1796264;80;21261;-76
2021/04/04 08:15:27;;;;;;;32.93;18.80;;;;;;;4.60;86.72;99985.37;1796533;79;21733;-76
2021/04/04 08:18:32;;;;;;;41.95;20.92;;;;;;;4.69;86.97;99982.28;1775884;81;21260;-76
2021/04/04 08:21:45;;;;;;;48.08;24.92;;;;;;;4.80;86.70;99979.42;1739108;82;21824;-76
2021/04/04 08:25:14;;;;;;;43.28;22.37;;;;;;;4.88;86.59;99988.15;1717278;82;21149;-76
2021/04/04 08:28:26;;;;;;;52.78;23.83;;;;;;;4.91;86.32;99989.22;1739030;82;21342;-76
2021/04/04 08:31:38;;;;;;;25.45;14.23;;;;;;;4.93;86.27;99987.70;1735822;82;21276;-76
2021/04/04 08:34:57;;;;;;;11.70;7.53;;;;;;;4.94;86.39;99985.34;1739251;82;21161;-76
2021/04/04 08:38:04;;;;;;;7.33;5.78;;;;;;;4.91;86.45;99984.30;1713203;84;21280;-76
2021/04/04 08:41:11;;;;;;;6.92;5.10;;;;;;;4.88;86.27;99987.64;1714988;82;21342;-76
2021/04/04 08:44:30;;;;;;;8.40;5.95;;;;;;;4.92;86.34;99977.38;1697356;84;21763;-75
2021/04/04 08:47:39;;;;;;;9.30;5.83;;;;;;;4.98;85.55;99972.70;1697501;84;21315;-76
2021/04/04 08:50:45;;;;;;;9.05;4.78;;;;;;;5.06;85.59;99970.11;1697470;84;21177;-76
2021/04/04 08:53:54;;;;;;;7.42;5.55;;;;;;;5.16;84.60;99971.92;1697391;84;21180;-76
2021/04/04 08:56:58;;;;;;;6.03;5.30;;;;;;;5.18;84.03;99976.20;1697386;83;21179;-76
2021/04/04 09:00:03;;;;;;;7.65;4.40;;;;;;;5.27;84.09;99975.78;1676138;84;21283;-76
2021/04/04 09:03:13;;;;;;;5.78;4.22;;;;;;;5.28;84.29;99973.45;1697426;84;21726;-76
2021/04/04 09:06:19;;;;;;;5.25;3.95;;;;;;;5.26;84.48;99974.93;1697631;84;21739;-76
2021/04/04 09:09:40;;;;;;;4.35;3.27;;;;;;;5.29;84.40;99970.58;1697427;84;21215;-76
2021/04/04 09:12:46;;;;;;;4.42;3.47;;;;;;;5.33;84.36;99964.35;1697387;84;21355;-76
2021/04/04 09:16:02;;;;;;;3.52;2.92;;;;;;;5.41;83.84;99956.80;1696035;84;21272;-76
2021/04/04 09:19:07;;;;;;;4.03;3.60;;;;;;;5.54;83.54;99961.36;1720742;83;21305;-76
2021/04/04 09:22:21;;;;;;;5.22;3.62;;;;;;;5.59;83.17;99953.62;1722542;83;21806;-76
2021/04/04 09:25:26;;;;;;;3.87;2.72;;;;;;;5.59;82.55;99950.91;1722524;82;21644;-75
2021/04/04 09:28:39;;;;;;;4.50;2.90;;;;;;;5.64;82.60;99954.86;1722185;83;21387;-75
2021/04/04 09:31:46;;;;;;;4.05;3.30;;;;;;;5.74;82.55;99960.25;1722536;83;21522;-75
2021/04/04 09:34:51;;;;;;;3.60;3.08;;;;;;;5.84;81.47;99958.81;1699072;83;21172;-76
2021/04/04 09:37:56;;;;;;;4.30;2.92;;;;;;;5.90;81.32;99952.25;1722527;83;21145;-76
2021/04/04 09:41:02;;;;;;;3.00;2.70;;;;;;;5.98;81.38;99947.95;1722496;82;21275;-76
2021/04/04 09:44:10;;;;;;;4.08;2.80;;;;;;;6.06;80.68;99944.78;1722404;83;21184;-75
2021/04/04 09:47:15;;;;;;;3.60;2.98;;;;;;;6.10;80.67;99938.55;1722537;83;21271;-75
2021/04/04 09:50:34;;;;;;;4.42;2.83;;;;;;;6.15;79.47;99938.92;1722390;83;21796;-75
2021/04/04 09:53:52;;;;;;;3.47;2.20;;;;;;;6.03;79.26;99944.27;1722543;83;21159;-76
2021/04/04 09:57:05;;;;;;;3.65;2.50;;;;;;;6.02;79.32;99939.34;1722266;82;21213;-76
2021/04/04 10:00:12;;;;;;;3.62;2.50;;;;;;;6.00;78.68;99932.35;1721088;83;21347;-76
2021/04/04 10:03:22;;;;;;;2.60;2.20;;;;;;;6.08;79.34;99937.35;1682124;83;21279;-76
2021/04/04 10:06:27;;;;;;;5.17;2.30;;;;;;;6.26;79.26;99935.98;1722514;83;21697;-76
2021/04/04 10:09:34;;;;;;;4.03;2.65;;;;;;;6.38;78.36;99930.63;1722254;83;21303;-76
2021/04/04 10:13:03;;;;;;;2.45;1.90;;;;;;;6.44;77.49;99931.84;1695967;83;21276;-76
2021/04/04 10:16:08;;;;;;;2.10;1.90;;;;;;;6.50;76.66;99931.73;1734696;81;21887;-76
2021/04/04 10:19:20;;;;;;;3.20;2.50;;;;;;;6.43;76.17;99927.42;1736502;82;21804;-76
2021/04/04 10:22:27;;;;;;;2.45;2.25;;;;;;;6.42;76.93;99919.45;1740162;82;21323;-76
2021/04/04 10:25:33;;;;;;;3.37;2.40;;;;;;;6.36;77.01;99920.94;1749066;81;21690;-76
2021/04/04 10:29:03;;;;;;;2.98;2.17;;;;;;;6.34;76.63;99912.92;1747784;82;21324;-76
2021/04/04 10:32:07;;;;;;;3.17;1.97;;;;;;;6.32;76.82;99914.97;1748109;82;21197;-76
2021/04/04 10:35:14;;;;;;;2.10;1.90;;;;;;;6.37;76.92;99912.63;1747910;82;21804;-76
2021/04/04 10:38:31;;;;;;;3.22;2.37;;;;;;;6.47;76.64;99913.03;1747980;82;21173;-76
2021/04/04 10:41:43;;;;;;;2.40;2.17;;;;;;;6.48;76.77;99903.86;1727348;82;21267;-76
2021/04/04 10:44:48;;;;;;;3.00;2.45;;;;;;;6.49;76.22;99906.91;1722446;83;21348;-76
2021/04/04 10:47:53;;;;;;;2.55;2.35;;;;;;;6.45;75.91;99909.13;1722548;83;21221;-76
2021/04/04 10:50:58;;;;;;;2.70;1.95;;;;;;;6.48;76.30;99909.29;1722513;83;21806;-76
2021/04/04 10:54:05;;;;;;;3.42;2.17;;;;;;;6.60;76.13;99903.44;1722459;83;21302;-76
2021/04/04 10:57:13;;;;;;;4.70;2.77;;;;;;;6.71;74.58;99905.53;1722533;83;21709;-76
2021/04/04 11:00:20;;;;;;;5.00;3.42;;;;;;;6.78;74.63;99896.58;1698419;83;21320;-76
2021/04/04 11:03:25;;;;;;;6.40;3.15;;;;;;;6.90;74.63;99887.10;1722482;83;21293;-76
2021/04/04 11:06:31;;;;;;;3.40;2.20;;;;;;;7.03;73.96;99896.17;1722336;83;21313;-76
2021/04/04 11:09:36;;;;;;;2.77;1.80;;;;;;;7.05;73.11;99893.28;1721402;83;21373;-75
2021/04/04 11:12:46;;;;;;;3.15;2.25;;;;;;;7.02;72.54;99893.63;1721430;83;21897;-76
2021/04/04 11:16:07;;;;;;;2.47;1.90;;;;;;;7.06;71.12;99890.93;1722437;83;21845;-76
2021/04/04 11:19:16;;;;;;;2.87;2.40;;;;;;;7.00;70.96;99884.77;1720128;83;21318;-76
2021/04/04 11:22:26;;;;;;;2.95;2.27;;;;;;;6.99;71.45;99888.00;1716184;83;21311;-77
2021/04/04 11:25:38;;;;;;;2.93;2.17;;;;;;;7.02;71.64;99892.27;1708396;83;21330;-76
2021/04/04 11:28:43;;;;;;;3.05;2.50;;;;;;;7.03;72.08;99886.66;1693869;85;21293;-76
2021/04/04 11:31:51;;;;;;;3.70;2.80;;;;;;;7.01;71.86;99890.06;1692625;85;21328;-76
2021/04/04 11:35:11;;;;;;;3.25;2.22;;;;;;;6.98;71.67;99891.73;1693896;85;21333;-76
2021/04/04 11:38:23;;;;;;;4.22;2.60;;;;;;;7.02;71.59;99885.47;1694014;85;21281;-76
2021/04/04 11:41:32;;;;;;;2.83;2.35;;;;;;;7.08;71.75;99885.66;1708483;83;21802;-76
2021/04/04 11:44:42;;;;;;;3.60;2.77;;;;;;;7.20;71.27;99892.14;1713699;82;21289;-76
2021/04/04 11:47:48;;;;;;;4.05;2.52;;;;;;;7.24;71.63;99887.56;1713551;84;21278;-76
2021/04/04 11:50:54;;;;;;;3.22;2.70;;;;;;;7.35;71.13;99885.92;1713340;83;21218;-76
2021/04/04 11:54:00;;;;;;;3.08;2.35;;;;;;;7.45;70.32;99891.22;1713491;84;21270;-76
2021/04/04 11:57:06;;;;;;;2.92;2.00;;;;;;;7.42;69.68;99891.02;1713552;84;21861;-76
2021/04/04 12:00:25;;;;;;;3.02;2.30;;;;;;;7.38;69.56;99884.20;1713529;84;21813;-76
2021/04/04 12:03:34;;;;;;;2.08;1.80;;;;;;;7.31;70.02;99883.19;1713504;84;21159;-76
2021/04/04 12:06:40;;;;;;;;;;;;;;;7.34;69.29;99883.34;1716100;84;21338;-76
2021/04/04 12:09:47;;;;;;;3.30;2.50;;;;;;;7.35;69.04;99892.72;1713465;83;20280;-76
2021/04/04 12:12:54;;;;;;;3.45;2.33;;;;;;;7.36;69.03;99893.57;1713581;84;21635;-76
2021/04/04 12:16:09;;;;;;;3.25;2.47;;;;;;;7.43;68.90;99892.75;1713496;84;21857;-76
2021/04/04 12:19:15;;;;;;;2.62;2.35;;;;;;;7.43;68.76;99891.88;1712075;82;21182;-76
2021/04/04 12:22:24;;;;;;;2.62;2.30;;;;;;;7.41;68.81;99896.64;1737217;82;21300;-76
2021/04/04 12:25:35;;;;;;;3.80;2.15;;;;;;;7.47;68.61;99901.92;1747221;81;21843;-76
2021/04/04 12:28:40;;;;;;;4.45;2.50;;;;;;;7.48;68.58;99900.42;1765757;81;21316;-76
2021/04/04 12:31:48;;;;;;;3.80;2.10;;;;;;;7.49;68.64;99901.27;1764948;81;21296;-76
2021/04/04 12:34:54;;;;;;;3.70;2.22;;;;;;;7.51;68.71;99904.15;1765624;81;21680;-76
2021/04/04 12:38:00;;;;;;;3.87;2.17;;;;;;;7.45;68.72;99899.89;1765631;81;21276;-76
2021/04/04 12:41:08;;;;;;;4.08;2.37;;;;;;;7.40;68.63;99904.47;1765643;81;21257;-76
2021/04/04 12:44:14;;;;;;;24.47;11.75;;;;;;;7.36;68.87;99890.34;1765588;81;21264;-76
2021/04/04 12:47:23;;;;;;;15.15;7.78;;;;;;;7.45;68.87;99893.09;1765575;81;21332;-76
2021/04/04 12:50:28;;;;;;;;;;;;;;;7.55;68.99;99896.51;1768282;81;21312;-76
2021/04/04 12:53:40;;;;;;;4.42;3.33;;;;;;;7.64;69.10;99885.47;1765648;81;20286;-76
2021/04/04 12:56:47;;;;;;;3.67;2.50;;;;;;;7.76;69.32;99883.25;1765517;81;21307;-76
2021/04/04 12:59:52;;;;;;;13.68;6.90;;;;;;;7.91;68.91;99883.47;1765598;81;21269;-76
2021/04/04 13:03:08;;;;;;;5.80;3.22;;;;;;;7.94;68.03;99875.78;1764470;81;21296;-76
2021/04/04 13:06:14;;;;;;;5.05;2.85;;;;;;;7.97;67.54;99877.84;1765583;81;21201;-76
2021/04/04 13:09:23;;;;;;;2.12;1.92;;;;;;;7.97;68.07;99874.61;1765471;81;21260;-76
2021/04/04 13:12:28;;;;;;;2.37;2.00;;;;;;;8.04;68.48;99869.31;1763870;81;21855;-76
2021/04/04 13:15:37;;;;;;;3.55;2.60;;;;;;;8.20;68.76;99872.05;1772173;81;21307;-76
2021/04/04 13:18:55;;;;;;;3.22;2.67;;;;;;;8.28;67.95;99866.59;1771945;81;21296;-76
2021/04/04 13:22:01;;;;;;;3.50;2.27;;;;;;;8.25;67.54;99864.72;1777272;80;21192;-76
2021/04/04 13:25:07;;;;;;;3.10;2.10;;;;;;;8.19;67.52;99867.11;1786608;80;21258;-76
2021/04/04 13:28:12;;;;;;;3.25;2.90;;;;;;;8.16;66.71;99867.44;1795106;80;21193;-76
2021/04/04 13:31:29;;;;;;;9.45;6.80;;;;;;;8.07;67.06;99868.47;1794979;80;21287;-76
2021/04/04 13:34:47;;;;;;;5.35;4.10;;;;;;;7.97;67.68;99870.52;1795077;80;21264;-76
2021/04/04 13:37:52;;;;;;;4.42;3.20;;;;;;;7.81;68.45;99868.66;1795634;80;21276;-76
2021/04/04 13:40:59;;;;;;;3.52;3.20;;;;;;;7.77;69.29;99870.52;1796207;80;21126;-76
2021/04/04 13:44:04;;;;;;;5.92;3.30;;;;;;;7.74;69.04;99863.53;1774294;80;21134;-76
2021/04/04 13:47:05;;;;;;;4.80;3.77;;;;;;;7.71;68.98;99871.17;1796369;80;22210;-76
2021/04/04 13:50:24;;;;;;;4.30;3.30;;;;;;;7.68;68.68;99870.50;1796373;80;21322;-76
2021/04/04 13:53:39;;;;;;;4.37;3.37;;;;;;;7.66;69.30;99868.95;1796396;80;21284;-76
2021/04/04 13:56:53;;;;;;;4.87;2.83;;;;;;;7.59;69.16;99861.14;1786921;80;21819;-76
2021/04/04 14:00:01;;;;;;;8.25;3.55;;;;;;;7.52;68.82;99857.37;1784025;80;21327;-76
2021/04/04 14:03:06;;;;;;;3.80;3.27;;;;;;;7.42;68.15;99858.38;1784335;80;21323;-76
2021/04/04 14:06:16;;;;;;;7.03;4.05;;;;;;;7.29;67.76;99856.66;1785847;80;21381;-76
2021/04/04 14:09:22;;;;;;;7.50;6.53;;;;;;;7.17;68.56;99860.70;1785363;80;21287;-76
2021/04/04 14:12:28;;;;;;;7.25;5.70;;;;;;;7.08;69.63;99862.53;1771065;80;21324;-76
2021/04/04 14:15:36;;;;;;;18.05;10.65;;;;;;;7.01;70.43;99865.59;1783336;79;21255;-76
2021/04/04 14:18:44;;;;;;;11.60;6.95;;;;;;;6.95;70.92;99863.50;1784211;80;21220;-76
2021/04/04 14:21:51;;;;;;;8.40;6.10;;;;;;;6.93;71.90;99866.06;1783408;80;21379;-76
2021/04/04 14:24:58;;;;;;;14.25;8.05;;;;;;;6.95;72.24;99865.38;1773749;81;21295;-76
2021/04/04 14:28:05;;;;;;;14.90;7.97;;;;;;;6.95;72.24;99862.14;1753296;82;21710;-76
2021/04/04 14:31:09;;;;;;;19.07;13.00;;;;;;;6.99;72.60;99858.59;1751819;82;21310;-76
2021/04/04 14:34:14;;;;;;;16.90;10.20;;;;;;;7.01;73.03;99855.19;1751924;82;21885;-76
2021/04/04 14:37:21;;;;;;;19.98;10.30;;;;;;;7.05;73.04;99863.37;1751961;82;21314;-76
2021/04/04 14:40:26;;;;;;;17.52;10.48;;;;;;;7.06;73.21;99866.45;1743687;82;21843;-76
2021/04/04 14:43:39;;;;;;;17.92;10.80;;;;;;;7.08;73.15;99867.12;1723917;83;21280;-75
2021/04/04 14:46:41;;;;;;;24.45;12.73;;;;;;;7.15;73.24;99865.44;1724532;83;21213;-76
2021/04/04 14:49:46;;;;;;;18.55;10.40;;;;;;;7.25;73.40;99873.48;1724534;83;21323;-76
2021/04/04 14:53:11;;;;;;;13.05;9.35;;;;;;;7.32;73.08;99870.43;1724463;83;21354;-76
2021/04/04 14:56:03;;;;;;;14.93;9.75;;;;;;;7.34;72.86;99873.34;1741189;81;21267;-76
2021/04/04 14:59:09;;;;;;;16.70;9.80;;;;;;;7.28;72.38;99864.46;1754270;82;21773;-76
2021/04/04 15:05:27;;;;;;;19.60;10.30;;;;;;;7.23;72.91;99863.27;1748516;82;21282;-76